Time;durP1;ratioP1;P1;durP2;ratioP2;P2;SDS_P1;SDS_P2;PMS_P1;PMS_P2;Temp;Humidity;BMP_temperature;BMP_pressure;BME280_temperature;BME280_humidity;BME280_pressure;Samples;Min_cycle;Max_cycle;Signal;HPM_P1;HPM_P2
2023/03/04 00:02:12;;;;;;;35.97;9.63;;;12.40;99.90;;;;;;5001896;28;20837;-74
2023/03/04 00:04:38;;;;;;;37.10;10.13;;;12.50;99.90;;;;;;5003840;28;20204;-74
2023/03/04 00:07:05;;;;;;;31.30;8.53;;;12.40;99.90;;;;;;5020140;28;20463;-74
2023/03/04 00:09:31;;;;;;;41.10;9.60;;;12.30;99.90;;;;;;4985292;28;20263;-74
2023/03/04 00:11:57;;;;;;;31.80;8.20;;;12.30;99.90;;;;;;5018296;28;20199;-74
2023/03/04 00:14:23;;;;;;;29.13;8.53;;;12.20;99.90;;;;;;5018789;28;20223;-74
2023/03/04 00:16:49;;;;;;;35.00;8.17;;;12.20;99.90;;;;;;5020089;28;20203;-74
2023/03/04 00:19:18;;;;;;;33.37;10.00;;;12.20;99.90;;;;;;5019700;28;20390;-75
2023/03/04 00:21:44;;;;;;;29.07;8.90;;;12.00;99.90;;;;;;5002070;28;20184;-73
2023/03/04 00:24:11;;;;;;;21.77;8.27;;;12.10;99.90;;;;;;5020583;28;20213;-74
2023/03/04 00:26:37;;;;;;;29.73;8.73;;;12.10;99.90;;;;;;4986343;28;20671;-74
2023/03/04 00:29:03;;;;;;;32.00;9.23;;;12.00;99.90;;;;;;5000035;28;20787;-74
2023/03/04 00:31:29;;;;;;;23.23;8.00;;;12.00;99.90;;;;;;5017710;28;20501;-74
2023/03/04 00:33:55;;;;;;;31.60;9.27;;;11.90;99.90;;;;;;5019277;28;20665;-74
2023/03/04 00:36:21;;;;;;;27.67;9.13;;;11.90;99.90;;;;;;4985867;28;20188;-74
2023/03/04 00:38:48;;;;;;;35.10;8.37;;;11.80;99.90;;;;;;5001596;28;20188;-74
2023/03/04 00:41:14;;;;;;;44.47;10.23;;;11.80;99.90;;;;;;5002681;28;20192;-74
2023/03/04 00:43:40;;;;;;;27.57;8.60;;;11.80;99.90;;;;;;5018992;28;20254;-74
2023/03/04 00:46:07;;;;;;;25.83;8.77;;;11.80;99.90;;;;;;5001990;28;20190;-74
2023/03/04 00:48:33;;;;;;;38.63;8.53;;;11.90;99.90;;;;;;5002391;28;20190;-74
2023/03/04 00:50:59;;;;;;;29.47;8.47;;;12.00;99.90;;;;;;5016987;28;20559;-74
2023/03/04 00:53:25;;;;;;;34.03;9.40;;;12.00;99.90;;;;;;5019823;28;20672;-74
2023/03/04 00:55:52;;;;;;;27.20;7.60;;;11.90;99.90;;;;;;5020247;28;20188;-74
2023/03/04 00:58:18;;;;;;;29.43;8.13;;;11.90;99.90;;;;;;5001538;28;20176;-74
2023/03/04 01:00:44;;;;;;;32.63;8.97;;;12.00;99.90;;;;;;5020660;28;20294;-74
2023/03/04 01:03:10;;;;;;;25.67;8.50;;;12.00;99.90;;;;;;5018712;28;20212;-74
2023/03/04 01:05:36;;;;;;;28.23;8.47;;;12.00;99.90;;;;;;5019324;28;20184;-74
2023/03/04 01:08:04;;;;;;;29.20;8.50;;;12.00;99.90;;;;;;5016348;28;20279;-74
2023/03/04 01:10:31;;;;;;;32.53;8.10;;;12.00;99.90;;;;;;5017960;28;20251;-74
2023/03/04 01:12:57;;;;;;;22.83;8.13;;;12.00;99.90;;;;;;5000756;28;20288;-74
2023/03/04 01:15:24;;;;;;;30.87;7.97;;;12.00;99.90;;;;;;5002037;28;20289;-74
2023/03/04 01:17:57;;;;;;;30.40;8.23;;;12.00;99.90;;;;;;5000309;28;20187;-74
2023/03/04 01:20:24;;;;;;;31.10;8.73;;;12.00;99.90;;;;;;5020130;28;20184;-74
2023/03/04 01:22:53;;;;;;;31.23;9.03;;;12.00;99.90;;;;;;5018941;28;20275;-74
2023/03/04 01:25:19;;;;;;;25.43;8.17;;;12.00;99.90;;;;;;5018956;28;20539;-74
2023/03/04 01:27:45;;;;;;;36.97;8.83;;;12.00;99.90;;;;;;5016125;28;20195;-74
2023/03/04 01:30:12;;;;;;;23.23;8.03;;;11.90;99.90;;;;;;5018008;28;20255;-74
2023/03/04 01:32:38;;;;;;;28.77;7.83;;;11.90;99.90;;;;;;5017877;28;20230;-74
2023/03/04 01:35:05;;;;;;;23.30;6.73;;;11.90;99.90;;;;;;5019228;28;21126;-74
2023/03/04 01:37:31;;;;;;;29.67;6.97;;;11.90;99.90;;;;;;5018156;28;20220;-74
2023/03/04 01:39:58;;;;;;;21.83;6.73;;;11.90;99.90;;;;;;5016816;28;20247;-74
2023/03/04 01:42:29;;;;;;;31.00;8.00;;;11.90;99.90;;;;;;4999972;28;20200;-74
2023/03/04 01:44:58;;;;;;;27.60;7.87;;;11.90;99.90;;;;;;5022229;28;20251;-74
2023/03/04 01:47:30;;;;;;;26.20;8.03;;;11.90;99.90;;;;;;5023312;28;20299;-74
2023/03/04 01:49:58;;;;;;;31.57;8.30;;;11.90;99.90;;;;;;5024424;28;20190;-74
2023/03/04 01:52:27;;;;;;;25.47;7.80;;;11.90;99.90;;;;;;4988895;28;20184;-74
2023/03/04 01:54:53;;;;;;;28.97;7.77;;;11.90;99.90;;;;;;4989618;28;20196;-74
2023/03/04 01:57:25;;;;;;;18.40;6.87;;;11.90;99.90;;;;;;5004307;28;20656;-74
2023/03/04 02:00:17;;;;;;;19.27;6.30;;;11.90;99.90;;;;;;5004926;28;20600;-74
2023/03/04 02:02:45;;;;;;;20.00;7.33;;;11.80;99.90;;;;;;5021867;28;20887;-74
2023/03/04 02:05:13;;;;;;;18.17;6.93;;;11.70;99.90;;;;;;5004771;28;20282;-74
2023/03/04 02:07:40;;;;;;;29.30;6.67;;;11.60;99.90;;;;;;5004583;28;20199;-74
2023/03/04 02:10:09;;;;;;;23.77;6.80;;;11.50;99.90;;;;;;5021223;28;20335;-74
2023/03/04 02:12:36;;;;;;;22.00;6.70;;;11.30;99.90;;;;;;5021168;28;20188;-74
2023/03/04 02:15:07;;;;;;;26.43;7.40;;;11.20;99.90;;;;;;5021090;28;20176;-74
2023/03/04 02:17:34;;;;;;;20.10;6.67;;;11.30;99.90;;;;;;5021676;28;20219;-74
2023/03/04 02:20:29;;;;;;;21.97;6.73;;;11.20;99.90;;;;;;5019741;28;20644;-74
2023/03/04 02:23:04;;;;;;;30.53;7.27;;;11.10;99.90;;;;;;5004283;28;20304;-74
2023/03/04 02:25:51;;;;;;;18.40;6.17;;;11.10;99.90;;;;;;5022336;28;20299;-74
2023/03/04 02:28:18;;;;;;;17.70;6.13;;;11.00;99.90;;;;;;5004492;28;20292;-74
2023/03/04 02:30:44;;;;;;;25.13;5.90;;;11.00;99.90;;;;;;5022051;28;20200;-74
2023/03/04 02:33:18;;;;;;;19.00;6.70;;;11.00;99.90;;;;;;5021724;28;20215;-74
2023/03/04 02:35:49;;;;;;;20.97;6.50;;;10.90;99.90;;;;;;5021366;28;20207;-74
2023/03/04 02:38:15;;;;;;;14.80;5.87;;;10.90;99.90;;;;;;5003121;28;20738;-74
2023/03/04 02:40:47;;;;;;;17.47;5.50;;;11.00;99.90;;;;;;5017730;28;20192;-74
2023/03/04 02:43:14;;;;;;;18.60;5.57;;;10.90;99.90;;;;;;5022128;28;20706;-74
2023/03/04 02:45:48;;;;;;;20.03;6.67;;;10.90;99.90;;;;;;5021380;28;20238;-74
2023/03/04 02:48:20;;;;;;;23.63;6.00;;;10.90;99.90;;;;;;5020446;28;20196;-74
2023/03/04 02:50:53;;;;;;;27.80;6.17;;;10.90;99.90;;;;;;5022252;28;20265;-74
2023/03/04 02:53:21;;;;;;;24.43;6.50;;;10.80;99.90;;;;;;4998900;28;20201;-74
2023/03/04 02:55:48;;;;;;;18.43;6.17;;;10.80;99.90;;;;;;5019396;28;20231;-74
2023/03/04 02:58:14;;;;;;;18.77;5.83;;;10.80;99.90;;;;;;5018557;28;20267;-74
2023/03/04 03:00:41;;;;;;;19.43;6.13;;;10.80;99.90;;;;;;5004328;28;20196;-74
2023/03/04 03:03:08;;;;;;;24.63;6.70;;;10.60;99.90;;;;;;5003163;28;20216;-74
2023/03/04 03:05:36;;;;;;;21.50;6.10;;;10.60;99.90;;;;;;5004221;28;20333;-74
2023/03/04 03:08:06;;;;;;;24.47;5.40;;;10.60;99.90;;;;;;5001908;28;20251;-74
2023/03/04 03:10:33;;;;;;;25.83;7.20;;;10.70;99.90;;;;;;4987755;28;20185;-74
2023/03/04 03:12:59;;;;;;;16.87;5.57;;;10.70;99.90;;;;;;5020664;28;20210;-74
2023/03/04 03:15:25;;;;;;;16.50;5.67;;;10.70;99.90;;;;;;5004320;28;20199;-74
2023/03/04 03:17:52;;;;;;;21.47;6.93;;;10.70;99.90;;;;;;5022290;28;20188;-74
2023/03/04 03:20:18;;;;;;;16.97;6.43;;;10.70;99.90;;;;;;5021330;28;20184;-74
2023/03/04 03:22:45;;;;;;;20.07;6.07;;;10.70;99.90;;;;;;5022240;28;20192;-74
2023/03/04 03:25:14;;;;;;;20.27;6.10;;;10.70;99.90;;;;;;5020989;28;20223;-74
2023/03/04 03:27:41;;;;;;;29.70;6.50;;;10.70;99.90;;;;;;5018889;28;20188;-74
2023/03/04 03:30:15;;;;;;;22.50;6.87;;;10.70;99.90;;;;;;5019539;28;20196;-74
2023/03/04 03:32:41;;;;;;;20.97;5.87;;;10.70;99.90;;;;;;5022352;28;20188;-74
2023/03/04 03:35:08;;;;;;;27.30;6.13;;;10.70;99.90;;;;;;5003418;28;20195;-74
2023/03/04 03:37:35;;;;;;;17.53;6.50;;;10.60;99.90;;;;;;5017686;28;20188;-74
2023/03/04 03:40:01;;;;;;;14.03;5.37;;;10.50;99.90;;;;;;5003305;28;20516;-74
2023/03/04 03:42:28;;;;;;;24.23;6.47;;;10.60;99.90;;;;;;5002142;28;20287;-74
2023/03/04 03:44:54;;;;;;;20.95;6.82;;;10.50;99.90;;;;;;5002983;28;20422;-74
2023/03/04 03:47:21;;;;;;;21.87;5.80;;;10.30;99.90;;;;;;4985220;28;20184;-74
2023/03/04 03:49:47;;;;;;;28.40;7.53;;;10.30;99.90;;;;;;5021603;28;20367;-74
2023/03/04 03:52:13;;;;;;;30.93;6.83;;;10.40;99.90;;;;;;5018390;28;20199;-74
2023/03/04 03:54:40;;;;;;;17.63;5.30;;;10.40;99.90;;;;;;5003748;28;20184;-74
2023/03/04 03:57:06;;;;;;;19.63;6.43;;;10.50;99.90;;;;;;5018981;28;20185;-74
2023/03/04 03:59:32;;;;;;;24.97;6.67;;;10.50;99.90;;;;;;5021885;28;20223;-75
2023/03/04 04:01:58;;;;;;;21.07;6.60;;;10.50;99.90;;;;;;5018835;28;20218;-74
2023/03/04 04:04:25;;;;;;;25.07;6.43;;;10.50;99.90;;;;;;5000996;28;20536;-74
2023/03/04 04:06:51;;;;;;;24.77;6.80;;;10.40;99.90;;;;;;4998028;28;20188;-74
2023/03/04 04:09:18;;;;;;;25.90;6.07;;;10.40;99.90;;;;;;5000938;28;20180;-74
2023/03/04 04:11:44;;;;;;;20.07;6.37;;;10.50;99.90;;;;;;5003486;28;20680;-74
2023/03/04 04:14:13;;;;;;;15.70;6.03;;;10.50;99.90;;;;;;5001804;28;21013;-74
2023/03/04 04:16:39;;;;;;;22.17;6.47;;;10.60;99.90;;;;;;4999725;28;20193;-74
2023/03/04 04:19:06;;;;;;;23.38;7.03;;;10.60;99.90;;;;;;5000791;28;20414;-74
2023/03/04 04:21:32;;;;;;;23.67;7.13;;;10.60;99.90;;;;;;5001384;28;20184;-74
2023/03/04 04:23:59;;;;;;;18.43;6.37;;;10.60;99.90;;;;;;5002624;28;20543;-74
2023/03/04 04:26:25;;;;;;;30.73;7.33;;;10.70;99.90;;;;;;5000401;28;21458;-74
2023/03/04 04:28:51;;;;;;;28.80;7.10;;;10.70;99.90;;;;;;5016846;28;20605;-74
2023/03/04 04:31:17;;;;;;;22.13;7.18;;;10.80;99.90;;;;;;5019598;28;20421;-74
2023/03/04 04:33:44;;;;;;;35.10;7.13;;;10.80;99.90;;;;;;5021411;28;20517;-74
2023/03/04 04:36:15;;;;;;;35.13;7.07;;;10.80;99.90;;;;;;5019947;28;20334;-74
2023/03/04 04:38:41;;;;;;;29.83;6.23;;;10.70;99.90;;;;;;5000367;28;20279;-74
2023/03/04 04:41:18;;;;;;;24.40;6.30;;;10.80;99.90;;;;;;5018422;28;20245;-74
2023/03/04 04:43:44;;;;;;;26.97;6.20;;;10.90;99.90;;;;;;5019467;28;20210;-74
2023/03/04 04:46:10;;;;;;;25.37;6.40;;;10.90;99.90;;;;;;5001761;28;20200;-74
2023/03/04 04:48:36;;;;;;;22.80;6.13;;;11.00;99.90;;;;;;5020107;28;20188;-74
2023/03/04 04:51:03;;;;;;;17.93;6.03;;;11.10;99.90;;;;;;5002521;28;20204;-74
2023/03/04 04:53:29;;;;;;;27.67;5.80;;;11.20;99.90;;;;;;5003346;28;20195;-74
2023/03/04 04:55:56;;;;;;;20.87;6.30;;;11.20;99.90;;;;;;5017357;28;20199;-74
2023/03/04 04:58:25;;;;;;;15.23;4.23;;;11.30;99.90;;;;;;5017246;28;20291;-74
2023/03/04 05:00:54;;;;;;;21.37;5.10;;;11.20;99.90;;;;;;5019531;28;20560;-74
2023/03/04 05:03:21;;;;;;;27.37;6.33;;;11.40;99.90;;;;;;5018575;28;20683;-74
2023/03/04 05:05:48;;;;;;;26.37;6.17;;;11.40;99.90;;;;;;5019730;28;20273;-74
2023/03/04 05:08:14;;;;;;;28.43;5.73;;;11.60;99.90;;;;;;5017356;28;20315;-74
2023/03/04 05:10:40;;;;;;;21.27;5.97;;;11.60;99.90;;;;;;5017594;28;20423;-74
2023/03/04 05:13:06;;;;;;;19.17;5.30;;;11.60;99.90;;;;;;5017268;28;20188;-74
2023/03/04 05:15:32;;;;;;;18.90;5.37;;;11.50;99.90;;;;;;5018230;28;20196;-74
2023/03/04 05:17:58;;;;;;;21.47;5.00;;;11.40;99.90;;;;;;5019784;28;20267;-74
2023/03/04 05:20:26;;;;;;;20.07;4.67;;;11.40;99.90;;;;;;5025109;28;20198;-74
2023/03/04 05:22:52;;;;;;;19.13;3.53;;;11.40;99.90;;;;;;5024962;28;20226;-74
2023/03/04 05:25:18;;;;;;;14.40;3.50;;;11.30;99.90;;;;;;5007643;28;20275;-74
2023/03/04 05:27:46;;;;;;;14.97;3.30;;;11.20;99.90;;;;;;5004485;28;20212;-74
2023/03/04 05:30:12;;;;;;;12.73;3.77;;;11.20;99.90;;;;;;5008758;28;20728;-74
2023/03/04 05:32:39;;;;;;;10.07;3.30;;;11.30;99.90;;;;;;5025955;28;20685;-74
2023/03/04 05:35:06;;;;;;;7.67;3.33;;;11.30;99.90;;;;;;5026794;28;20273;-74
2023/03/04 05:37:32;;;;;;;16.10;2.97;;;11.20;99.90;;;;;;5023897;28;20199;-74
2023/03/04 05:39:59;;;;;;;10.37;2.93;;;11.30;99.90;;;;;;5006970;28;20844;-74
2023/03/04 05:42:25;;;;;;;16.43;4.00;;;11.30;99.90;;;;;;5004983;28;20199;-74
2023/03/04 05:44:52;;;;;;;16.90;3.33;;;11.30;99.90;;;;;;5006783;28;20271;-74
2023/03/04 05:47:18;;;;;;;8.57;2.40;;;11.30;99.90;;;;;;5007872;28;20670;-74
2023/03/04 05:49:45;;;;;;;9.13;3.10;;;11.40;99.90;;;;;;4991993;28;20194;-74
2023/03/04 05:52:11;;;;;;;17.80;3.67;;;11.40;99.90;;;;;;5023635;28;20192;-74
2023/03/04 05:54:38;;;;;;;15.70;3.57;;;11.40;99.90;;;;;;5026966;28;20706;-74
2023/03/04 05:57:04;;;;;;;10.43;3.10;;;11.50;99.90;;;;;;5007508;28;20610;-74
2023/03/04 05:59:30;;;;;;;13.63;3.33;;;11.50;99.90;;;;;;5007878;28;20191;-74
2023/03/04 06:01:57;;;;;;;11.43;2.97;;;11.60;99.90;;;;;;5008682;28;20599;-74
2023/03/04 06:04:23;;;;;;;11.03;3.30;;;11.70;99.90;;;;;;5008198;28;20208;-74
2023/03/04 06:06:53;;;;;;;16.57;3.63;;;11.70;99.90;;;;;;5022531;28;20693;-74
2023/03/04 06:09:20;;;;;;;16.90;3.60;;;11.80;99.90;;;;;;5024478;28;20199;-74
2023/03/04 06:11:48;;;;;;;18.53;3.97;;;11.90;99.90;;;;;;5007765;28;20278;-74
2023/03/04 06:14:17;;;;;;;19.63;4.83;;;12.00;99.90;;;;;;5025021;28;20219;-74
2023/03/04 06:16:44;;;;;;;15.87;4.37;;;12.20;99.90;;;;;;5022761;28;20918;-74
2023/03/04 06:19:10;;;;;;;17.80;4.37;;;12.30;99.90;;;;;;5005590;28;20199;-74
2023/03/04 06:21:36;;;;;;;20.83;4.97;;;12.50;99.90;;;;;;5007277;28;20369;-74
2023/03/04 06:24:02;;;;;;;21.13;5.30;;;12.60;99.90;;;;;;5027353;28;20204;-74
2023/03/04 06:26:30;;;;;;;23.33;5.83;;;12.80;99.90;;;;;;5025421;28;20192;-74
2023/03/04 06:28:57;;;;;;;19.17;5.90;;;12.90;99.90;;;;;;5022926;28;20370;-74
2023/03/04 06:31:23;;;;;;;19.43;5.27;;;13.00;99.90;;;;;;5019846;28;20279;-74
2023/03/04 06:33:52;;;;;;;19.77;5.97;;;13.00;99.90;;;;;;5023190;28;20241;-74
2023/03/04 06:36:18;;;;;;;17.73;5.70;;;13.10;99.90;;;;;;5018245;28;20328;-74
2023/03/04 06:38:44;;;;;;;22.23;5.83;;;13.10;99.90;;;;;;5020688;28;20228;-74
2023/03/04 06:41:12;;;;;;;13.53;5.27;;;13.20;99.90;;;;;;5004139;28;20597;-74
2023/03/04 06:43:39;;;;;;;21.90;5.63;;;13.20;99.90;;;;;;5004717;28;20402;-74
2023/03/04 06:46:07;;;;;;;23.00;5.43;;;13.30;99.90;;;;;;5004825;28;20562;-74
2023/03/04 06:48:34;;;;;;;23.50;4.77;;;13.30;99.90;;;;;;5018803;28;20239;-74
2023/03/04 06:51:09;;;;;;;17.67;5.90;;;13.40;99.90;;;;;;5002455;28;20624;-74
2023/03/04 06:53:37;;;;;;;19.73;5.30;;;13.30;99.90;;;;;;5003891;28;20184;-74
2023/03/04 06:56:05;;;;;;;22.27;4.43;;;13.30;99.90;;;;;;5004855;28;20250;-74
2023/03/04 06:58:31;;;;;;;20.87;4.63;;;13.30;99.90;;;;;;5021074;28;20254;-74
2023/03/04 07:01:12;;;;;;;13.57;4.13;;;13.40;99.90;;;;;;5019243;28;20685;-74
2023/03/04 07:03:38;;;;;;;19.57;5.00;;;13.50;99.90;;;;;;5020014;28;21295;-74
2023/03/04 07:06:05;;;;;;;15.13;4.73;;;13.50;99.90;;;;;;5020754;28;20192;-74
2023/03/04 07:08:31;;;;;;;19.30;4.67;;;13.30;99.90;;;;;;5002793;28;20196;-74
2023/03/04 07:10:57;;;;;;;16.57;5.30;;;13.20;99.90;;;;;;5019375;28;20231;-74
2023/03/04 07:13:24;;;;;;;18.93;5.30;;;13.00;99.90;;;;;;5003551;28;20324;-74
2023/03/04 07:15:50;;;;;;;18.77;5.27;;;12.90;99.90;;;;;;5004016;28;20223;-74
2023/03/04 07:18:16;;;;;;;21.47;5.50;;;12.80;99.90;;;;;;5018085;28;20283;-74
2023/03/04 07:20:42;;;;;;;16.53;4.70;;;12.80;99.90;;;;;;4986696;28;20830;-74
2023/03/04 07:23:08;;;;;;;16.20;4.70;;;12.80;99.90;;;;;;5002358;28;20224;-74
2023/03/04 07:25:35;;;;;;;20.50;5.17;;;12.80;99.90;;;;;;5021810;28;20193;-74
2023/03/04 07:28:01;;;;;;;23.77;6.20;;;12.80;99.90;;;;;;4988312;28;20200;-74
2023/03/04 07:30:27;;;;;;;20.33;4.93;;;12.90;99.90;;;;;;5004263;28;20230;-74
2023/03/04 07:32:57;;;;;;;16.03;5.37;;;13.00;99.90;;;;;;5021830;28;20192;-74
2023/03/04 07:35:23;;;;;;;22.23;5.30;;;12.90;99.90;;;;;;5022169;28;20184;-74
2023/03/04 07:37:49;;;;;;;14.10;4.60;;;13.00;99.90;;;;;;5002164;28;20207;-74
2023/03/04 07:40:15;;;;;;;22.57;4.80;;;12.90;99.90;;;;;;5003908;28;20234;-74
2023/03/04 07:42:43;;;;;;;19.63;4.70;;;13.00;99.90;;;;;;5020317;28;20407;-74
2023/03/04 07:45:10;;;;;;;19.63;5.00;;;13.00;99.90;;;;;;5022903;28;20231;-74
2023/03/04 07:47:37;;;;;;;14.90;4.70;;;13.10;99.90;;;;;;5022384;28;20192;-74
2023/03/04 07:50:04;;;;;;;14.80;4.80;;;13.10;99.90;;;;;;5021871;28;20236;-74
2023/03/04 07:52:30;;;;;;;19.53;4.53;;;13.10;99.90;;;;;;5020889;28;20992;-74
2023/03/04 07:54:56;;;;;;;16.27;4.87;;;13.10;99.90;;;;;;5021059;28;20208;-74
2023/03/04 07:57:23;;;;;;;22.83;5.97;;;13.20;99.90;;;;;;5023262;28;20242;-74
2023/03/04 07:59:49;;;;;;;15.20;4.93;;;13.20;99.90;;;;;;5004247;28;20263;-74
2023/03/04 08:02:15;;;;;;;18.03;5.10;;;13.20;99.90;;;;;;5002446;28;20180;-74
2023/03/04 08:04:41;;;;;;;25.53;5.37;;;13.30;99.90;;;;;;5023092;28;20203;-74
2023/03/04 08:07:07;;;;;;;12.53;4.90;;;13.20;99.90;;;;;;5021257;28;20200;-74
2023/03/04 08:09:34;;;;;;;21.43;4.90;;;13.20;99.90;;;;;;4987950;28;20190;-74
2023/03/04 08:12:00;;;;;;;23.00;5.87;;;13.40;99.90;;;;;;5003092;28;20215;-74
2023/03/04 08:14:26;;;;;;;11.17;4.97;;;13.40;99.90;;;;;;5003278;28;20223;-74
2023/03/04 08:16:52;;;;;;;14.67;4.87;;;13.50;99.90;;;;;;4985279;28;20302;-74
2023/03/04 08:19:18;;;;;;;19.93;5.27;;;13.70;99.90;;;;;;5018096;28;20206;-74
2023/03/04 08:21:45;;;;;;;17.30;5.23;;;13.70;99.90;;;;;;4986663;28;20195;-74
2023/03/04 08:24:11;;;;;;;22.73;6.33;;;13.80;99.90;;;;;;5002258;28;20248;-74
2023/03/04 08:26:45;;;;;;;17.40;5.17;;;13.80;99.90;;;;;;5019021;28;20295;-74
2023/03/04 08:29:16;;;;;;;19.80;5.00;;;14.00;99.90;;;;;;5018822;28;20188;-74
2023/03/04 08:31:55;;;;;;;21.33;6.00;;;14.10;99.90;;;;;;5018783;28;20283;-74
2023/03/04 08:34:25;;;;;;;15.77;4.83;;;14.20;99.90;;;;;;4999806;28;20211;-74
2023/03/04 08:36:52;;;;;;;22.70;5.77;;;14.30;99.90;;;;;;5016819;28;20659;-74
2023/03/04 08:39:19;;;;;;;19.23;5.20;;;14.30;99.90;;;;;;5019393;28;20204;-74
2023/03/04 08:41:47;;;;;;;18.40;5.40;;;14.50;99.90;;;;;;5000769;28;20196;-74
2023/03/04 08:44:18;;;;;;;18.93;5.23;;;14.40;99.90;;;;;;5020898;28;20969;-74
2023/03/04 08:46:44;;;;;;;22.00;6.23;;;14.40;99.90;;;;;;5003149;28;20184;-74
2023/03/04 08:49:13;;;;;;;18.73;5.57;;;14.50;99.90;;;;;;5017575;28;20188;-74
2023/03/04 08:51:44;;;;;;;16.00;4.60;;;14.40;99.90;;;;;;5016173;28;20266;-74
2023/03/04 08:54:10;;;;;;;21.67;5.37;;;14.40;99.90;;;;;;5017778;28;20192;-74
2023/03/04 08:56:37;;;;;;;14.20;4.60;;;14.40;99.90;;;;;;5000333;28;20664;-74
2023/03/04 08:59:03;;;;;;;14.53;4.47;;;14.40;99.90;;;;;;5018490;28;20192;-74
2023/03/04 09:01:30;;;;;;;13.07;4.70;;;14.30;99.90;;;;;;5020952;28;20203;-74
2023/03/04 09:03:56;;;;;;;18.90;5.30;;;14.30;99.90;;;;;;5000625;28;20342;-74
2023/03/04 09:06:22;;;;;;;18.27;4.93;;;14.20;99.90;;;;;;5019976;28;20292;-74
2023/03/04 09:08:48;;;;;;;19.00;5.17;;;14.40;99.90;;;;;;5021814;28;20318;-74
2023/03/04 09:11:16;;;;;;;16.80;4.67;;;14.40;99.90;;;;;;5023349;28;20192;-74
2023/03/04 09:13:42;;;;;;;22.07;5.60;;;14.50;99.90;;;;;;5005739;28;20563;-74
2023/03/04 09:16:14;;;;;;;20.47;5.00;;;14.40;99.90;;;;;;5006890;28;20312;-74
2023/03/04 09:18:42;;;;;;;16.50;4.97;;;14.70;99.90;;;;;;5022218;28;20207;-72
2023/03/04 09:21:09;;;;;;;15.33;4.90;;;14.80;99.90;;;;;;5022366;28;20184;-71
2023/03/04 09:23:36;;;;;;;16.00;5.10;;;14.90;99.90;;;;;;5023362;28;20311;-71
2023/03/04 09:26:24;;;;;;;18.53;5.40;;;15.00;99.90;;;;;;5004665;28;20489;-71
2023/03/04 09:28:52;;;;;;;18.63;5.07;;;14.90;99.90;;;;;;5017426;28;20226;-71
2023/03/04 09:31:19;;;;;;;19.03;5.47;;;15.00;99.90;;;;;;5020757;28;20184;-71
2023/03/04 09:33:45;;;;;;;21.03;5.57;;;15.00;99.90;;;;;;5022476;28;20250;-71
2023/03/04 09:36:14;;;;;;;26.10;5.60;;;14.90;99.90;;;;;;5003278;28;20191;-71
2023/03/04 09:38:42;;;;;;;20.20;5.30;;;15.10;99.90;;;;;;5003129;28;20242;-71
2023/03/04 09:41:25;;;;;;;21.10;5.23;;;15.10;99.90;;;;;;5003534;28;20864;-71
2023/03/04 09:43:54;;;;;;;25.27;5.30;;;15.10;99.90;;;;;;5001109;28;20216;-71
2023/03/04 09:46:49;;;;;;;22.03;5.87;;;15.20;99.90;;;;;;5022762;28;20297;-71
2023/03/04 09:49:20;;;;;;;13.30;4.77;;;15.30;99.90;;;;;;5019066;28;20283;-71
2023/03/04 09:52:45;;;;;;;16.50;4.90;;;15.50;99.90;;;;;;5003169;28;20249;-71
2023/03/04 09:55:30;;;;;;;13.10;4.43;;;15.50;99.90;;;;;;5021895;28;20223;-71
2023/03/04 09:58:06;;;;;;;18.07;4.83;;;15.60;99.90;;;;;;5018333;28;20192;-71
2023/03/04 10:00:45;;;;;;;13.30;4.37;;;15.60;99.90;;;;;;5020965;28;20200;-71
2023/03/04 10:03:20;;;;;;;12.43;4.33;;;15.80;99.90;;;;;;5002334;28;20214;-71
2023/03/04 10:06:06;;;;;;;18.80;5.00;;;15.80;99.90;;;;;;5005535;28;21043;-71
2023/03/04 10:08:57;;;;;;;10.50;4.43;;;15.90;99.90;;;;;;5023007;28;20190;-71
2023/03/04 10:11:33;;;;;;;12.07;4.43;;;16.00;99.90;;;;;;5005529;28;20555;-71
2023/03/04 10:14:20;;;;;;;16.83;4.80;;;16.10;99.90;;;;;;5026365;28;20206;-71
2023/03/04 10:16:58;;;;;;;13.67;4.57;;;16.40;99.90;;;;;;5014803;28;20679;-71
2023/03/04 10:19:36;;;;;;;10.83;4.17;;;16.60;99.90;;;;;;5006299;28;20204;-71
2023/03/04 10:22:22;;;;;;;14.77;3.63;;;16.70;99.90;;;;;;5023610;28;20278;-71
2023/03/04 10:24:48;;;;;;;17.27;3.73;;;16.70;99.90;;;;;;5025629;28;20220;-71
2023/03/04 10:27:18;;;;;;;13.13;3.83;;;16.70;99.90;;;;;;5023647;28;20203;-71
2023/03/04 10:29:46;;;;;;;17.53;4.73;;;16.80;99.90;;;;;;5005574;28;20640;-71
2023/03/04 10:32:17;;;;;;;14.37;3.80;;;16.70;99.90;;;;;;5006484;28;20728;-71
2023/03/04 10:34:44;;;;;;;10.80;3.70;;;16.90;99.90;;;;;;4990134;28;20603;-71
2023/03/04 10:37:10;;;;;;;9.50;3.53;;;16.90;99.90;;;;;;5023203;28;20429;-71
2023/03/04 10:39:44;;;;;;;14.13;3.70;;;16.80;99.90;;;;;;5004918;28;20515;-71
2023/03/04 10:42:13;;;;;;;15.43;4.63;;;17.00;99.90;;;;;;5023944;28;20671;-71
2023/03/04 10:44:59;;;;;;;13.80;4.50;;;17.10;99.90;;;;;;5024522;28;20212;-71
2023/03/04 10:47:31;;;;;;;11.40;4.23;;;17.10;99.90;;;;;;5023131;28;20188;-71
2023/03/04 10:50:02;;;;;;;19.20;5.50;;;17.20;99.90;;;;;;5025994;28;20200;-71
2023/03/04 10:52:51;;;;;;;14.73;5.55;;;17.40;99.90;;;;;;5008568;28;20195;-71
2023/03/04 10:55:44;;;;;;;15.67;4.90;;;17.40;99.90;;;;;;5006437;28;20255;-71
2023/03/04 10:58:19;;;;;;;14.77;4.63;;;17.40;99.90;;;;;;5006266;28;20193;-71
2023/03/04 11:01:04;;;;;;;14.55;4.63;;;17.50;99.90;;;;;;5025621;28;20290;-71
2023/03/04 11:03:37;;;;;;;14.60;4.50;;;17.70;99.90;;;;;;5006343;28;20211;-71
2023/03/04 11:06:22;;;;;;;16.73;4.55;;;17.70;99.90;;;;;;5020011;28;20282;-71
2023/03/04 11:08:57;;;;;;;8.40;4.15;;;17.60;99.90;;;;;;5008999;28;20554;-71
2023/03/04 11:11:44;;;;;;;16.27;4.82;;;17.80;99.90;;;;;;5008086;28;20183;-71
2023/03/04 11:14:27;;;;;;;15.27;4.80;;;17.80;99.90;;;;;;5005864;28;20202;-71
2023/03/04 11:17:01;;;;;;;9.05;4.13;;;17.80;99.90;;;;;;5019635;28;20737;-71
2023/03/04 11:19:37;;;;;;;16.47;5.03;;;17.80;99.90;;;;;;5020539;28;20198;-71
2023/03/04 11:22:04;;;;;;;17.10;4.40;;;17.50;99.90;;;;;;5018338;28;20313;-71
2023/03/04 11:24:36;;;;;;;10.60;3.83;;;17.50;99.90;;;;;;5005827;28;20295;-71
2023/03/04 11:27:02;;;;;;;6.70;3.00;;;17.50;99.90;;;;;;5022496;28;20869;-71
2023/03/04 11:29:42;;;;;;;6.90;3.30;;;17.30;99.90;;;;;;5024492;28;20184;-71
2023/03/04 11:32:22;;;;;;;7.80;2.93;;;17.60;99.90;;;;;;5025891;28;20184;-71
2023/03/04 11:35:23;;;;;;;9.07;2.80;;;17.70;99.90;;;;;;5017830;28;20214;-71
2023/03/04 11:38:26;;;;;;;7.90;2.30;;;17.60;99.90;;;;;;4985074;28;20235;-71
2023/03/04 11:41:00;;;;;;;6.63;2.50;;;17.60;99.90;;;;;;5009835;28;20274;-71
2023/03/04 11:43:40;;;;;;;7.70;2.97;;;17.40;99.90;;;;;;5024911;28;20302;-71
2023/03/04 11:46:42;;;;;;;12.73;3.13;;;17.40;99.90;;;;;;5015989;28;20195;-71
2023/03/04 11:49:55;;;;;;;8.77;3.50;;;17.40;99.90;;;;;;5006354;28;20666;-71
2023/03/04 11:52:41;;;;;;;9.30;2.57;;;17.60;99.90;;;;;;5003065;28;20204;-71
2023/03/04 11:55:08;;;;;;;9.27;2.70;;;17.50;99.90;;;;;;5024602;28;20564;-71
2023/03/04 11:57:53;;;;;;;12.07;2.80;;;17.30;99.90;;;;;;5023082;28;20177;-71
2023/03/04 12:00:57;;;;;;;11.20;2.83;;;17.50;99.90;;;;;;5007199;28;20583;-71
2023/03/04 12:04:13;;;;;;;10.77;3.20;;;17.60;99.90;;;;;;5004678;28;20199;-71
2023/03/04 12:07:33;;;;;;;10.70;3.70;;;17.50;99.90;;;;;;5023456;28;20198;-71
2023/03/04 12:10:35;;;;;;;19.43;4.10;;;17.60;99.90;;;;;;4964532;28;20200;-71
2023/03/04 12:13:35;;;;;;;11.60;4.13;;;17.70;99.90;;;;;;4965211;28;20196;-71
2023/03/04 12:16:39;;;;;;;11.33;3.73;;;17.30;99.90;;;;;;5023848;28;20180;-71
2023/03/04 12:19:58;;;;;;;10.80;3.13;;;17.40;99.90;;;;;;5022127;28;20901;-71
2023/03/04 12:22:45;;;;;;;14.43;3.20;;;17.10;99.90;;;;;;5021650;28;20242;-71
2023/03/04 12:25:35;;;;;;;14.37;3.70;;;17.10;99.90;;;;;;5008771;28;21044;-71
2023/03/04 12:28:24;;;;;;;15.83;3.57;;;17.30;99.90;;;;;;5009687;28;20223;-71
2023/03/04 12:31:16;;;;;;;10.40;3.47;;;17.50;99.90;;;;;;5021844;28;20181;-71
2023/03/04 12:34:12;;;;;;;13.93;3.77;;;17.30;99.90;;;;;;5004302;28;20184;-71
2023/03/04 12:37:17;;;;;;;10.90;3.30;;;17.20;99.90;;;;;;5021820;28;20188;-71
2023/03/04 12:40:19;;;;;;;11.20;3.57;;;17.10;99.90;;;;;;5024481;28;20215;-71
2023/03/04 12:43:18;;;;;;;10.87;2.90;;;16.90;99.90;;;;;;5020941;28;20222;-71
2023/03/04 12:46:18;;;;;;;12.17;3.50;;;16.70;99.90;;;;;;5006595;28;20204;-71
2023/03/04 12:48:54;;;;;;;9.47;3.00;;;16.40;99.90;;;;;;5005862;28;20210;-71
2023/03/04 12:51:53;;;;;;;9.50;3.03;;;16.90;99.90;;;;;;5010701;28;20187;-71
2023/03/04 12:54:38;;;;;;;11.87;3.00;;;17.10;99.90;;;;;;4982814;28;20282;-71
2023/03/04 12:57:22;;;;;;;11.07;2.80;;;17.00;99.90;;;;;;5006477;28;20559;-71
2023/03/04 13:00:15;;;;;;;7.70;2.67;;;16.60;99.90;;;;;;5019977;28;20290;-71
2023/03/04 13:03:22;;;;;;;11.60;3.30;;;16.40;99.90;;;;;;5020840;28;20245;-71